createdAt,value
2022-08-05T00:01:35.894Z,20.21
2022-08-05T00:04:08.208Z,20.16
2022-08-05T00:06:36.649Z,20.12
2022-08-05T00:09:12.774Z,20.10
2022-08-05T00:11:49.375Z,20.09
2022-08-05T00:14:27.689Z,20.09
2022-08-05T00:16:58.030Z,20.10
2022-08-05T00:19:33.134Z,20.10
2022-08-05T00:22:11.306Z,20.10
2022-08-05T00:24:42.256Z,20.10
2022-08-05T00:27:16.500Z,20.10
2022-08-05T00:29:45.390Z,20.09
2022-08-05T00:32:15.490Z,20.10
2022-08-05T00:35:04.095Z,20.09
2022-08-05T00:37:53.086Z,20.07
2022-08-05T00:40:26.801Z,20.04
2022-08-05T00:42:59.170Z,20.02
2022-08-05T00:45:38.467Z,20.00
2022-08-05T00:48:31.420Z,19.98
2022-08-05T00:50:59.897Z,19.91
2022-08-05T00:54:00.396Z,19.84
2022-08-05T00:56:25.309Z,19.78
2022-08-05T00:58:53.656Z,19.74
2022-08-05T01:01:42.165Z,19.71
2022-08-05T01:04:14.126Z,19.70
2022-08-05T01:06:48.451Z,19.68
2022-08-05T01:09:17.416Z,19.64
2022-08-05T01:11:56.031Z,19.59
2022-08-05T01:14:33.520Z,19.54
2022-08-05T01:17:05.362Z,19.49
2022-08-05T01:20:01.440Z,19.42
2022-08-05T01:22:47.020Z,19.36
2022-08-05T01:25:40.106Z,19.31
2022-08-05T01:28:19.181Z,19.27
2022-08-05T01:31:10.600Z,19.23
2022-08-05T01:33:53.602Z,19.19
2022-08-05T01:36:28.265Z,19.17
2022-08-05T01:39:01.032Z,19.14
2022-08-05T01:41:33.783Z,19.10
2022-08-05T01:44:03.108Z,19.07
2022-08-05T01:46:42.579Z,19.05
2022-08-05T01:49:22.827Z,19.02
2022-08-05T01:51:59.041Z,18.98
2022-08-05T01:54:45.728Z,18.96
2022-08-05T01:58:13.082Z,18.93
2022-08-05T02:00:12.879Z,18.92
2022-08-05T02:02:54.283Z,18.93
2022-08-05T02:05:30.523Z,18.93
2022-08-05T02:08:03.473Z,18.93
2022-08-05T02:10:40.156Z,18.95
2022-08-05T02:13:19.137Z,18.95
2022-08-05T02:16:06.298Z,18.93
2022-08-05T02:19:00.178Z,18.92
2022-08-05T02:21:43.103Z,18.90
2022-08-05T02:24:23.153Z,18.90
2022-08-05T02:26:56.426Z,18.89
2022-08-05T02:29:59.496Z,18.88
2022-08-05T02:32:23.759Z,18.86
2022-08-05T02:35:09.694Z,18.85
2022-08-05T02:37:47.617Z,18.82
2022-08-05T02:40:24.467Z,18.81
2022-08-05T02:42:55.832Z,18.80
2022-08-05T02:45:26.532Z,18.78
2022-08-05T02:48:06.984Z,18.76
2022-08-05T02:50:47.190Z,18.73
2022-08-05T02:53:19.633Z,18.70
2022-08-05T02:55:59.650Z,18.66
2022-08-05T02:58:30.253Z,18.61
2022-08-05T03:01:02.576Z,18.57
2022-08-05T03:03:34.110Z,18.53
2022-08-05T03:06:55.961Z,18.48
2022-08-05T03:09:15.766Z,18.44
2022-08-05T03:11:54.641Z,18.42
2022-08-05T03:14:26.259Z,18.41
2022-08-05T03:16:54.639Z,18.39
2022-08-05T03:19:34.212Z,18.35
2022-08-05T03:22:04.994Z,18.32
2022-08-05T03:24:33.787Z,18.29
2022-08-05T03:27:03.823Z,18.26
2022-08-05T03:29:45.520Z,18.23
2022-08-05T03:32:31.022Z,18.22
2022-08-05T03:34:59.776Z,18.21
2022-08-05T03:37:31.440Z,18.18
2022-08-05T03:40:15.505Z,18.18
2022-08-05T03:42:53.597Z,18.20
2022-08-05T03:45:23.706Z,18.22
2022-08-05T03:47:56.856Z,18.26
2022-08-05T03:50:45.500Z,18.30
2022-08-05T03:55:51.935Z,18.34
2022-08-05T03:56:50.264Z,18.39
2022-08-05T03:59:46.919Z,18.45
2022-08-05T04:02:38.628Z,18.50
2022-08-05T04:05:10.076Z,18.54
2022-08-05T04:07:53.167Z,18.59
2022-08-05T04:10:32.152Z,18.63
2022-08-05T04:13:08.046Z,18.68
2022-08-05T04:15:37.239Z,18.73
2022-08-05T04:18:09.439Z,18.77
2022-08-05T04:20:38.599Z,18.82
2022-08-05T04:23:12.635Z,18.86
2022-08-05T04:25:57.759Z,18.91
2022-08-05T04:28:30.808Z,18.96
2022-08-05T04:31:01.520Z,19.01
2022-08-05T04:33:54.759Z,19.05
2022-08-05T04:36:44.824Z,19.10
2022-08-05T04:39:07.373Z,19.17
2022-08-05T04:41:37.715Z,19.23
2022-08-05T04:44:09.275Z,19.29
2022-08-05T04:46:38.983Z,19.34
2022-08-05T04:49:12.186Z,19.39
2022-08-05T04:51:44.343Z,19.44
2022-08-05T04:54:14.815Z,19.48
2022-08-05T04:56:43.627Z,19.52
2022-08-05T04:59:22.042Z,19.57
2022-08-05T05:02:07.946Z,19.62
2022-08-05T05:04:44.159Z,19.67
2022-08-05T05:07:18.447Z,19.71
2022-08-05T05:09:52.353Z,19.75
2022-08-05T05:12:22.320Z,19.81
2022-08-05T05:14:51.326Z,19.85
2022-08-05T05:17:23.807Z,19.90
2022-08-05T05:19:56.481Z,19.95
2022-08-05T05:22:26.794Z,20.00
2022-08-05T05:24:56.973Z,20.05
2022-08-05T05:27:45.767Z,20.10
2022-08-05T05:30:29.736Z,20.16
2022-08-05T05:33:16.227Z,20.23
2022-08-05T05:35:47.079Z,20.29
2022-08-05T05:38:22.925Z,20.36
2022-08-05T05:40:57.082Z,20.45
2022-08-05T05:43:54.484Z,20.52
2022-08-05T05:46:17.461Z,20.61
2022-08-05T05:48:48.678Z,20.70
2022-08-05T05:51:24.471Z,20.80
2022-08-05T05:53:58.898Z,20.90
2022-08-05T05:56:32.765Z,20.99
2022-08-05T05:59:07.647Z,21.09
2022-08-05T06:01:39.407Z,21.18
2022-08-05T06:04:11.554Z,21.27
2022-08-05T06:06:42.995Z,21.35
2022-08-05T06:09:18.203Z,21.43
2022-08-05T06:12:02.736Z,21.52
2022-08-05T06:14:32.130Z,21.59
2022-08-05T06:17:22.253Z,21.65
2022-08-05T06:19:56.756Z,21.70
2022-08-05T06:22:33.678Z,21.75
2022-08-05T06:25:24.509Z,21.81
2022-08-05T06:28:11.814Z,21.87
2022-08-05T06:30:41.347Z,21.92
2022-08-05T06:33:10.775Z,21.97
2022-08-05T06:36:07.469Z,22.02
2022-08-05T06:38:35.781Z,22.07
2022-08-05T06:41:07.764Z,22.13
2022-08-05T06:43:58.027Z,22.19
2022-08-05T06:46:30.032Z,22.26
2022-08-05T06:49:01.284Z,22.32
2022-08-05T06:51:31.303Z,22.37
2022-08-05T06:54:01.775Z,22.42
2022-08-05T06:56:34.354Z,22.49
2022-08-05T06:59:08.328Z,22.54
2022-08-05T07:01:41.503Z,22.60
2022-08-05T07:04:11.172Z,22.65
2022-08-05T07:06:42.348Z,22.72
2022-08-05T07:09:10.491Z,22.78
2022-08-05T07:11:39.869Z,22.85
2022-08-05T07:14:30.052Z,22.91
2022-08-05T07:17:58.404Z,22.99
2022-08-05T07:22:42.489Z,23.14
2022-08-05T07:25:55.120Z,23.22
2022-08-05T07:28:05.735Z,23.30
2022-08-05T07:30:39.015Z,23.38
2022-08-05T07:33:16.607Z,23.45
2022-08-05T07:36:04.910Z,23.52
2022-08-05T07:38:43.663Z,23.58
2022-08-05T07:42:13.205Z,23.64
2022-08-05T07:44:14.323Z,23.69
2022-08-05T07:46:50.130Z,23.76
2022-08-05T07:49:20.086Z,23.83
2022-08-05T07:51:53.662Z,23.90
2022-08-05T07:54:31.511Z,23.98
2022-08-05T07:57:22.718Z,24.06
2022-08-05T07:59:53.660Z,24.15
2022-08-05T08:02:30.938Z,24.24
2022-08-05T08:05:16.616Z,24.34
2022-08-05T08:07:59.686Z,24.44
2022-08-05T08:10:30.135Z,24.52
2022-08-05T08:12:58.892Z,24.58
2022-08-05T08:16:33.619Z,24.66
2022-08-05T08:18:15.371Z,24.73
2022-08-05T08:21:02.431Z,24.79
2022-08-05T08:24:01.282Z,24.86
2022-08-05T08:26:29.718Z,24.92
2022-08-05T08:29:09.755Z,24.99
2022-08-05T08:31:50.386Z,25.09
2022-08-05T08:34:30.305Z,25.17
2022-08-05T08:37:04.670Z,25.26
2022-08-05T08:39:37.763Z,25.33
2022-08-05T08:42:34.553Z,25.40
2022-08-05T08:45:23.752Z,25.50
2022-08-05T08:48:06.746Z,25.60
2022-08-05T08:51:07.449Z,25.68
2022-08-05T08:53:37.423Z,25.79
2022-08-05T08:56:06.602Z,25.89
2022-08-05T08:58:43.875Z,25.99
2022-08-05T09:01:18.388Z,26.10
2022-08-05T09:03:55.071Z,26.20
2022-08-05T09:06:29.853Z,26.29
2022-08-05T09:09:01.526Z,26.36
2022-08-05T09:11:53.341Z,26.43
2022-08-05T09:14:59.129Z,26.50
2022-08-05T09:17:43.040Z,26.59
2022-08-05T09:20:05.861Z,26.69
2022-08-05T09:23:09.177Z,26.78
2022-08-05T09:25:59.946Z,26.90
2022-08-05T09:28:33.825Z,27.02
2022-08-05T09:31:43.300Z,27.12
2022-08-05T09:33:59.818Z,27.21
2022-08-05T09:36:54.849Z,27.30
2022-08-05T09:39:39.238Z,27.42
2022-08-05T09:42:24.335Z,27.53
2022-08-05T09:45:17.642Z,27.62
2022-08-05T09:47:55.111Z,27.71
2022-08-05T09:50:44.592Z,27.81
2022-08-05T09:53:22.910Z,27.94
2022-08-05T09:56:03.764Z,28.07
2022-08-05T09:58:33.394Z,28.19
2022-08-05T10:01:14.844Z,28.28
2022-08-05T10:04:19.315Z,28.37
2022-08-05T10:06:58.822Z,28.48
2022-08-05T10:09:29.884Z,28.58
2022-08-05T10:12:30.547Z,28.67
2022-08-05T10:15:25.937Z,28.77
2022-08-05T10:18:09.343Z,28.86
2022-08-05T10:20:42.010Z,28.98
2022-08-05T10:23:34.776Z,29.06
2022-08-05T10:26:04.481Z,29.10
2022-08-05T10:28:36.760Z,29.22
2022-08-05T10:32:49.069Z,29.37
2022-08-05T10:33:54.454Z,29.52
2022-08-05T10:36:25.918Z,29.65
2022-08-05T10:39:10.033Z,29.80
2022-08-05T10:42:05.617Z,29.93
2022-08-05T10:44:35.231Z,30.01
2022-08-05T10:47:25.909Z,30.10
2022-08-05T10:50:32.526Z,30.19
2022-08-05T10:53:01.846Z,30.30
2022-08-05T10:55:38.434Z,30.44
2022-08-05T10:58:20.722Z,30.56
2022-08-05T11:00:55.245Z,30.68
2022-08-05T11:03:31.425Z,30.83
2022-08-05T11:06:15.108Z,30.98
2022-08-05T11:09:24.234Z,31.14
2022-08-05T11:12:45.351Z,31.30
2022-08-05T11:16:00.303Z,31.38
2022-08-05T11:18:34.501Z,31.41
2022-08-05T11:21:06.395Z,31.41
2022-08-05T11:24:05.470Z,31.50
2022-08-05T11:26:40.353Z,31.65
2022-08-05T11:29:35.325Z,31.78
2022-08-05T11:32:29.345Z,31.93
2022-08-05T11:34:58.040Z,32.06
2022-08-05T11:38:36.951Z,32.16
2022-08-05T11:41:34.330Z,32.28
2022-08-05T11:44:12.814Z,32.38
2022-08-05T11:47:14.086Z,32.50
2022-08-05T11:49:49.775Z,32.57
2022-08-05T11:52:31.061Z,32.60
2022-08-05T11:55:07.502Z,32.53
2022-08-05T11:58:08.121Z,32.33
2022-08-05T12:00:31.861Z,32.31
2022-08-05T12:03:29.086Z,32.37
2022-08-05T12:06:06.616Z,32.47
2022-08-05T12:08:49.949Z,32.60
2022-08-05T12:11:24.664Z,32.74
2022-08-05T12:14:04.229Z,32.84
2022-08-05T12:16:35.063Z,32.92
2022-08-05T12:19:08.914Z,32.97
2022-08-05T12:21:48.182Z,32.99
2022-08-05T12:24:19.634Z,33.03
2022-08-05T12:26:50.305Z,33.09
2022-08-05T12:29:23.878Z,33.13
2022-08-05T12:32:02.175Z,33.20
2022-08-05T12:34:37.202Z,33.25
2022-08-05T12:37:17.534Z,33.31
2022-08-05T12:39:51.953Z,33.37
2022-08-05T12:42:25.341Z,33.45
2022-08-05T12:45:03.599Z,33.51
2022-08-05T12:47:38.571Z,33.55
2022-08-05T12:50:26.675Z,33.62
2022-08-05T12:53:00.182Z,33.67
2022-08-05T12:55:32.614Z,33.70
2022-08-05T12:58:49.311Z,33.72
2022-08-05T13:02:02.673Z,33.76
2022-08-05T13:03:41.941Z,33.79
2022-08-05T13:06:18.234Z,33.81
2022-08-05T13:08:51.805Z,33.85
2022-08-05T13:11:59.725Z,33.89
2022-08-05T13:14:35.773Z,33.95
2022-08-05T13:17:10.523Z,33.98
2022-08-05T13:19:51.900Z,34.00
2022-08-05T13:22:28.058Z,34.02
2022-08-05T13:25:05.452Z,34.04
2022-08-05T13:27:40.221Z,34.02
2022-08-05T13:30:33.560Z,33.99
2022-08-05T13:33:01.262Z,33.99
2022-08-05T13:35:43.191Z,34.02
2022-08-05T13:38:31.057Z,34.10
2022-08-05T13:41:04.558Z,34.12
2022-08-05T13:43:45.825Z,34.11
2022-08-05T13:46:43.987Z,34.09
2022-08-05T13:49:12.871Z,34.08
2022-08-05T13:51:45.850Z,34.08
2022-08-05T13:54:17.117Z,34.09
2022-08-05T13:56:50.916Z,34.10
2022-08-05T13:59:24.392Z,34.12
2022-08-05T14:02:00.317Z,34.13
2022-08-05T14:04:51.107Z,34.15
2022-08-05T14:07:59.742Z,34.17
2022-08-05T14:10:28.889Z,34.15
2022-08-05T14:13:00.118Z,34.13
2022-08-05T14:16:07.267Z,34.12
2022-08-05T14:18:23.435Z,34.15
2022-08-05T14:20:54.903Z,34.14
2022-08-05T14:23:25.583Z,34.12
2022-08-05T14:25:58.169Z,34.12
2022-08-05T14:28:29.193Z,34.11
2022-08-05T14:30:59.160Z,34.08
2022-08-05T14:33:27.286Z,34.06
2022-08-05T14:36:02.133Z,34.06
2022-08-05T14:38:34.033Z,33.96
2022-08-05T14:41:07.515Z,33.92
2022-08-05T14:43:59.540Z,33.89
2022-08-05T14:46:29.759Z,33.89
2022-08-05T14:49:06.949Z,33.91
2022-08-05T14:51:38.470Z,33.92
2022-08-05T14:54:28.479Z,33.93
2022-08-05T14:56:58.989Z,33.94
2022-08-05T14:59:29.803Z,33.93
2022-08-05T15:02:14.828Z,33.92
2022-08-05T15:04:47.655Z,33.91
2022-08-05T15:08:09.183Z,33.91
2022-08-05T15:10:05.838Z,33.90
2022-08-05T15:12:58.028Z,33.88
2022-08-05T15:15:55.553Z,33.88
2022-08-05T15:18:17.295Z,33.87
2022-08-05T15:20:46.263Z,33.87
2022-08-05T15:23:15.863Z,33.85
2022-08-05T15:25:51.916Z,33.83
2022-08-05T15:28:27.741Z,33.81
2022-08-05T15:30:57.385Z,33.77
2022-08-05T15:34:04.678Z,33.72
2022-08-05T15:36:17.205Z,33.70
2022-08-05T15:40:41.721Z,33.66
2022-08-05T15:41:58.564Z,33.63
2022-08-05T15:44:30.416Z,33.59
2022-08-05T15:47:01.957Z,33.57
2022-08-05T15:49:48.203Z,33.55
2022-08-05T15:52:51.851Z,33.53
2022-08-05T15:55:15.739Z,33.49
2022-08-05T15:57:48.974Z,33.45
2022-08-05T16:00:26.159Z,33.41
2022-08-05T16:03:03.640Z,33.36
2022-08-05T16:05:32.026Z,33.32
2022-08-05T16:08:00.320Z,33.29
2022-08-05T16:10:29.515Z,33.26
2022-08-05T16:12:59.308Z,33.23
2022-08-05T16:15:32.510Z,33.19
2022-08-05T16:18:04.047Z,33.13
2022-08-05T16:20:32.950Z,33.07
2022-08-05T16:23:03.741Z,33.02
2022-08-05T16:25:33.964Z,32.98
2022-08-05T16:28:09.666Z,32.93
2022-08-05T16:30:38.848Z,32.88
2022-08-05T16:33:06.868Z,32.84
2022-08-05T16:35:41.978Z,32.80
2022-08-05T16:38:23.877Z,32.75
2022-08-05T16:41:00.421Z,32.69
2022-08-05T16:43:34.739Z,32.64
2022-08-05T16:46:12.670Z,32.58
2022-08-05T16:48:52.187Z,32.52
2022-08-05T16:51:20.876Z,32.45
2022-08-05T16:54:06.050Z,32.38
2022-08-05T16:56:41.674Z,32.31
2022-08-05T16:59:10.648Z,32.23
2022-08-05T17:01:52.934Z,32.16
2022-08-05T17:04:26.056Z,32.07
2022-08-05T17:07:03.133Z,31.99
2022-08-05T17:09:55.964Z,31.92
2022-08-05T17:12:22.606Z,31.84
2022-08-05T17:15:09.309Z,31.75
2022-08-05T17:17:42.135Z,31.68
2022-08-05T17:20:14.651Z,31.60
2022-08-05T17:22:43.102Z,31.52
2022-08-05T17:25:34.074Z,31.42
2022-08-05T17:28:01.512Z,31.30
2022-08-05T17:30:29.639Z,31.18
2022-08-05T17:32:57.812Z,31.03
2022-08-05T17:35:25.986Z,30.90
2022-08-05T17:38:04.835Z,30.75
2022-08-05T17:40:33.291Z,30.60
2022-08-05T17:43:02.182Z,30.47
2022-08-05T17:45:38.318Z,30.31
2022-08-05T17:48:08.288Z,30.17
2022-08-05T17:50:36.740Z,30.03
2022-08-05T17:53:08.666Z,29.91
2022-08-05T17:55:39.564Z,29.78
2022-08-05T17:58:12.523Z,29.66
2022-08-05T18:00:50.813Z,29.54
2022-08-05T18:03:48.481Z,29.41
2022-08-05T18:06:12.341Z,29.26
2022-08-05T18:08:52.206Z,29.11
2022-08-05T18:11:23.795Z,28.98
2022-08-05T18:13:54.738Z,28.87
2022-08-05T18:16:23.818Z,28.76
2022-08-05T18:18:52.036Z,28.63
2022-08-05T18:21:22.898Z,28.51
2022-08-05T18:23:54.597Z,28.40
2022-08-05T18:26:27.645Z,28.30
2022-08-05T18:28:58.512Z,28.20
2022-08-05T18:31:35.196Z,28.10
2022-08-05T18:34:06.190Z,28.02
2022-08-05T18:36:41.317Z,27.94
2022-08-05T18:39:42.539Z,27.86
2022-08-05T18:42:06.202Z,27.75
2022-08-05T18:44:49.354Z,27.66
2022-08-05T18:47:26.394Z,27.55
2022-08-05T18:50:15.727Z,27.45
2022-08-05T18:52:51.451Z,27.35
2022-08-05T18:55:22.319Z,27.26
2022-08-05T18:57:53.492Z,27.19
2022-08-05T19:00:28.591Z,27.10
2022-08-05T19:03:03.860Z,27.01
2022-08-05T19:06:12.425Z,26.92
2022-08-05T19:08:30.285Z,26.83
2022-08-05T19:11:04.842Z,26.75
2022-08-05T19:13:36.689Z,26.68
2022-08-05T19:16:25.198Z,26.62
2022-08-05T19:18:56.775Z,26.55
2022-08-05T19:21:27.373Z,26.49
2022-08-05T19:24:05.510Z,26.44
2022-08-05T19:26:44.039Z,26.36
2022-08-05T19:29:26.817Z,26.26
2022-08-05T19:32:11.254Z,26.19
2022-08-05T19:34:40.676Z,26.11
2022-08-05T19:37:10.858Z,26.04
2022-08-05T19:39:45.582Z,25.98
2022-08-05T19:42:35.875Z,25.92
2022-08-05T19:45:06.460Z,25.84
2022-08-05T19:47:37.500Z,25.79
2022-08-05T19:50:11.911Z,25.73
2022-08-05T19:52:41.039Z,25.66
2022-08-05T19:56:14.451Z,25.61
2022-08-05T19:58:19.592Z,25.54
2022-08-05T20:00:46.741Z,25.49
2022-08-05T20:03:15.441Z,25.46
2022-08-05T20:05:51.384Z,25.43
2022-08-05T20:08:20.452Z,25.37
2022-08-05T20:10:54.023Z,25.31
2022-08-05T20:13:30.116Z,25.26
2022-08-05T20:16:10.977Z,25.17
2022-08-05T20:18:39.719Z,25.10
2022-08-05T20:21:08.912Z,25.04
2022-08-05T20:23:51.345Z,24.98
2022-08-05T20:26:24.833Z,24.91
2022-08-05T20:28:56.915Z,24.85
2022-08-05T20:31:37.299Z,24.80
2022-08-05T20:34:16.167Z,24.73
2022-08-05T20:36:45.573Z,24.69
2022-08-05T20:39:16.655Z,24.65
2022-08-05T20:41:47.908Z,24.62
2022-08-05T20:44:29.498Z,24.59
2022-08-05T20:47:05.253Z,24.55
2022-08-05T20:49:38.127Z,24.52
2022-08-05T20:52:08.959Z,24.48
2022-08-05T20:54:42.805Z,24.45
2022-08-05T20:57:14.341Z,24.41
2022-08-05T21:00:10.650Z,24.37
2022-08-05T21:02:31.108Z,24.31
2022-08-05T21:04:59.317Z,24.27
2022-08-05T21:07:45.607Z,24.23
2022-08-05T21:10:18.978Z,24.18
2022-08-05T21:13:08.897Z,24.15
2022-08-05T21:15:37.241Z,24.07
2022-08-05T21:18:05.422Z,24.01
2022-08-05T21:20:34.199Z,23.97
2022-08-05T21:23:02.896Z,23.92
2022-08-05T21:25:33.648Z,23.88
2022-08-05T21:28:03.523Z,23.85
2022-08-05T21:30:31.922Z,23.80
2022-08-05T21:33:01.822Z,23.75
2022-08-05T21:35:55.507Z,23.71
2022-08-05T21:38:19.382Z,23.67
2022-08-05T21:40:47.560Z,23.64
2022-08-05T21:43:17.737Z,23.61
2022-08-05T21:45:57.972Z,23.59
2022-08-05T21:48:29.278Z,23.56
2022-08-05T21:50:59.932Z,23.54
2022-08-05T21:53:28.190Z,23.52
2022-08-05T21:56:16.161Z,23.50
2022-08-05T21:58:57.042Z,23.45
2022-08-05T22:01:26.579Z,23.41
2022-08-05T22:03:55.202Z,23.36
2022-08-05T22:06:35.332Z,23.31
2022-08-05T22:09:14.754Z,23.26
2022-08-05T22:11:47.250Z,23.21
2022-08-05T22:14:35.340Z,23.16
2022-08-05T22:17:06.700Z,23.10
2022-08-05T22:20:00.644Z,23.06
2022-08-05T22:22:28.038Z,23.02
2022-08-05T22:25:21.190Z,22.99
2022-08-05T22:28:11.098Z,22.94
2022-08-05T22:30:55.834Z,22.90
2022-08-05T22:33:57.195Z,22.86
2022-08-05T22:36:17.840Z,22.81
2022-08-05T22:38:48.149Z,22.79
2022-08-05T22:42:05.522Z,22.76
2022-08-05T22:44:09.110Z,22.72
2022-08-05T22:46:40.206Z,22.69
2022-08-05T22:49:12.138Z,22.66
2022-08-05T22:52:05.350Z,22.61
2022-08-05T22:54:37.133Z,22.56
2022-08-05T22:57:07.230Z,22.53
2022-08-05T22:59:48.545Z,22.49
2022-08-05T23:02:29.226Z,22.44
2022-08-05T23:05:01.529Z,22.40
2022-08-05T23:07:45.364Z,22.38
2022-08-05T23:10:19.860Z,22.34
2022-08-05T23:12:51.220Z,22.30
2022-08-05T23:15:20.055Z,22.28
2022-08-05T23:18:00.433Z,22.27
2022-08-05T23:20:32.194Z,22.25
2022-08-05T23:23:05.991Z,22.24
2022-08-05T23:25:51.635Z,22.20
2022-08-05T23:28:27.736Z,22.18
2022-08-05T23:31:16.728Z,22.17
2022-08-05T23:34:04.083Z,22.16
2022-08-05T23:36:38.686Z,22.14
2022-08-05T23:39:10.109Z,22.11
2022-08-05T23:41:48.604Z,22.07
2022-08-05T23:44:17.181Z,22.03
2022-08-05T23:46:48.327Z,21.99
2022-08-05T23:49:23.599Z,21.95
2022-08-05T23:52:12.039Z,21.93
2022-08-05T23:54:46.234Z,21.90
2022-08-05T23:57:14.410Z,21.85
